sensor_id;sensor_type;location;lat;lon;timestamp;pressure;altitude;pressure_sealevel;temperature;humidity
20983;BME280;10650;51.528;6.748;2023-07-08T00:00:25;101487.22;;;22.45;47.29
20983;BME280;10650;51.528;6.748;2023-07-08T00:02:52;101473.63;;;22.45;47.77
20983;BME280;10650;51.528;6.748;2023-07-08T00:05:20;101465.53;;;22.44;47.59
20983;BME280;10650;51.528;6.748;2023-07-08T00:07:50;101464.69;;;22.42;47.58
20983;BME280;10650;51.528;6.748;2023-07-08T00:10:18;101468.41;;;22.41;47.57
20983;BME280;10650;51.528;6.748;2023-07-08T00:12:48;101460.94;;;22.44;47.58
20983;BME280;10650;51.528;6.748;2023-07-08T00:15:16;101458.97;;;22.48;47.67
20983;BME280;10650;51.528;6.748;2023-07-08T00:17:44;101452.72;;;22.46;47.40
20983;BME280;10650;51.528;6.748;2023-07-08T00:20:13;101450.81;;;22.48;47.78
20983;BME280;10650;51.528;6.748;2023-07-08T00:22:41;101452.47;;;22.51;47.97
20983;BME280;10650;51.528;6.748;2023-07-08T00:25:10;101454.19;;;22.53;47.63
20983;BME280;10650;51.528;6.748;2023-07-08T00:27:38;101447.88;;;22.53;48.07
20983;BME280;10650;51.528;6.748;2023-07-08T00:30:15;101443.22;;;22.55;47.63
20983;BME280;10650;51.528;6.748;2023-07-08T00:32:44;101453.09;;;22.57;47.70
20983;BME280;10650;51.528;6.748;2023-07-08T00:35:12;101449.34;;;22.60;47.47
20983;BME280;10650;51.528;6.748;2023-07-08T00:37:40;101451.16;;;22.59;47.08
20983;BME280;10650;51.528;6.748;2023-07-08T00:40:13;101450.34;;;22.57;46.87
20983;BME280;10650;51.528;6.748;2023-07-08T00:42:42;101446.69;;;22.58;47.08
20983;BME280;10650;51.528;6.748;2023-07-08T00:45:15;101451.16;;;22.59;46.92
20983;BME280;10650;51.528;6.748;2023-07-08T00:47:45;101450.94;;;22.64;46.87
20983;BME280;10650;51.528;6.748;2023-07-08T00:50:16;101448.00;;;22.69;46.87
20983;BME280;10650;51.528;6.748;2023-07-08T00:52:44;101445.28;;;22.69;46.70
20983;BME280;10650;51.528;6.748;2023-07-08T00:55:13;101444.41;;;22.68;46.48
20983;BME280;10650;51.528;6.748;2023-07-08T00:57:42;101442.72;;;22.66;46.42
20983;BME280;10650;51.528;6.748;2023-07-08T01:00:13;101442.63;;;22.67;46.59
20983;BME280;10650;51.528;6.748;2023-07-08T01:02:44;101434.53;;;22.66;46.74
20983;BME280;10650;51.528;6.748;2023-07-08T01:05:14;101437.25;;;22.66;46.53
20983;BME280;10650;51.528;6.748;2023-07-08T01:07:44;101438.28;;;22.63;46.60
20983;BME280;10650;51.528;6.748;2023-07-08T01:10:14;101432.84;;;22.63;46.61
20983;BME280;10650;51.528;6.748;2023-07-08T01:12:45;101433.88;;;22.60;46.73
20983;BME280;10650;51.528;6.748;2023-07-08T01:15:13;101428.34;;;22.62;46.91
20983;BME280;10650;51.528;6.748;2023-07-08T01:17:41;101440.25;;;22.59;46.74
20983;BME280;10650;51.528;6.748;2023-07-08T01:20:10;101423.13;;;22.57;46.78
20983;BME280;10650;51.528;6.748;2023-07-08T01:22:41;101428.56;;;22.57;46.87
20983;BME280;10650;51.528;6.748;2023-07-08T01:25:09;101431.31;;;22.57;47.12
20983;BME280;10650;51.528;6.748;2023-07-08T01:27:41;101427.72;;;22.57;47.02
20983;BME280;10650;51.528;6.748;2023-07-08T01:30:10;101431.38;;;22.56;47.44
20983;BME280;10650;51.528;6.748;2023-07-08T01:32:39;101424.31;;;22.52;47.90
20983;BME280;10650;51.528;6.748;2023-07-08T01:35:08;101431.75;;;22.48;48.21
20983;BME280;10650;51.528;6.748;2023-07-08T01:37:37;101424.63;;;22.45;48.18
20983;BME280;10650;51.528;6.748;2023-07-08T01:40:17;101428.34;;;22.43;48.51
20983;BME280;10650;51.528;6.748;2023-07-08T01:42:46;101424.84;;;22.41;47.89
20983;BME280;10650;51.528;6.748;2023-07-08T01:45:15;101415.78;;;22.40;48.13
20983;BME280;10650;51.528;6.748;2023-07-08T01:47:44;101412.19;;;22.40;47.93
20983;BME280;10650;51.528;6.748;2023-07-08T01:50:12;101406.75;;;22.40;48.09
20983;BME280;10650;51.528;6.748;2023-07-08T01:52:40;101414.06;;;22.38;48.26
20983;BME280;10650;51.528;6.748;2023-07-08T01:55:08;101414.97;;;22.38;48.08
20983;BME280;10650;51.528;6.748;2023-07-08T01:57:37;101408.72;;;22.36;48.02
20983;BME280;10650;51.528;6.748;2023-07-08T02:00:05;101409.63;;;22.37;48.22
20983;BME280;10650;51.528;6.748;2023-07-08T02:02:33;101414.06;;;22.38;48.19
20983;BME280;10650;51.528;6.748;2023-07-08T02:05:00;101398.56;;;22.40;48.26
20983;BME280;10650;51.528;6.748;2023-07-08T02:07:28;101400.34;;;22.41;48.42
20983;BME280;10650;51.528;6.748;2023-07-08T02:09:55;101389.47;;;22.41;48.21
20983;BME280;10650;51.528;6.748;2023-07-08T02:12:23;101397.63;;;22.41;48.20
20983;BME280;10650;51.528;6.748;2023-07-08T02:14:52;101388.63;;;22.39;48.35
20983;BME280;10650;51.528;6.748;2023-07-08T02:17:19;101389.59;;;22.38;48.32
20983;BME280;10650;51.528;6.748;2023-07-08T02:19:47;101386.94;;;22.36;48.23
20983;BME280;10650;51.528;6.748;2023-07-08T02:22:14;101391.59;;;22.34;47.96
20983;BME280;10650;51.528;6.748;2023-07-08T02:24:42;101385.34;;;22.30;48.52
20983;BME280;10650;51.528;6.748;2023-07-08T02:27:09;101394.63;;;22.26;48.24
20983;BME280;10650;51.528;6.748;2023-07-08T02:29:37;101382.00;;;22.25;48.54
20983;BME280;10650;51.528;6.748;2023-07-08T02:32:06;101383.75;;;22.26;48.65
20983;BME280;10650;51.528;6.748;2023-07-08T02:34:35;101383.81;;;22.25;48.52
20983;BME280;10650;51.528;6.748;2023-07-08T02:37:03;101386.53;;;22.25;nan
20983;BME280;10650;51.528;6.748;2023-07-08T02:39:31;101387.50;;;22.24;48.67
20983;BME280;10650;51.528;6.748;2023-07-08T02:41:58;101380.28;;;22.23;48.85
20983;BME280;10650;51.528;6.748;2023-07-08T02:44:27;101377.56;;;22.23;49.08
20983;BME280;10650;51.528;6.748;2023-07-08T02:46:54;101374.94;;;22.21;49.19
20983;BME280;10650;51.528;6.748;2023-07-08T02:49:23;101383.16;;;22.20;49.37
20983;BME280;10650;51.528;6.748;2023-07-08T02:51:51;101379.63;;;22.18;49.76
20983;BME280;10650;51.528;6.748;2023-07-08T02:54:18;101387.84;;;22.16;50.35
20983;BME280;10650;51.528;6.748;2023-07-08T02:56:46;101381.63;;;22.14;50.31
20983;BME280;10650;51.528;6.748;2023-07-08T02:59:13;101378.16;;;22.10;49.81
20983;BME280;10650;51.528;6.748;2023-07-08T03:01:41;101386.53;;;22.06;49.55
20983;BME280;10650;51.528;6.748;2023-07-08T03:04:09;101389.63;;;21.98;49.53
20983;BME280;10650;51.528;6.748;2023-07-08T03:06:41;101388.06;;;21.92;49.67
20983;BME280;10650;51.528;6.748;2023-07-08T03:09:09;101382.81;;;21.88;49.64
20983;BME280;10650;51.528;6.748;2023-07-08T03:11:38;101383.03;;;21.83;49.38
20983;BME280;10650;51.528;6.748;2023-07-08T03:14:06;101393.25;;;21.78;49.68
20983;BME280;10650;51.528;6.748;2023-07-08T03:16:33;101379.75;;;21.76;49.69
20983;BME280;10650;51.528;6.748;2023-07-08T03:19:01;101376.19;;;21.74;50.00
20983;BME280;10650;51.528;6.748;2023-07-08T03:21:28;101381.69;;;21.73;50.10
20983;BME280;10650;51.528;6.748;2023-07-08T03:23:57;101376.47;;;21.68;50.09
20983;BME280;10650;51.528;6.748;2023-07-08T03:26:26;101383.75;;;21.68;50.44
20983;BME280;10650;51.528;6.748;2023-07-08T03:28:57;101375.72;;;21.65;50.84
20983;BME280;10650;51.528;6.748;2023-07-08T03:31:25;101376.88;;;21.59;51.18
20983;BME280;10650;51.528;6.748;2023-07-08T03:33:53;101370.72;;;21.55;51.07
20983;BME280;10650;51.528;6.748;2023-07-08T03:36:20;101378.88;;;21.55;51.10
20983;BME280;10650;51.528;6.748;2023-07-08T03:38:51;101378.03;;;21.53;51.27
20983;BME280;10650;51.528;6.748;2023-07-08T03:41:20;101390.84;;;21.51;51.21
20983;BME280;10650;51.528;6.748;2023-07-08T03:43:48;101399.91;;;21.50;51.23
20983;BME280;10650;51.528;6.748;2023-07-08T03:46:17;101399.91;;;21.50;51.42
20983;BME280;10650;51.528;6.748;2023-07-08T03:48:45;101400.69;;;21.54;51.56
20983;BME280;10650;51.528;6.748;2023-07-08T03:51:16;101403.34;;;21.55;51.52
20983;BME280;10650;51.528;6.748;2023-07-08T03:53:45;101403.06;;;21.62;51.45
20983;BME280;10650;51.528;6.748;2023-07-08T03:56:12;101396.38;;;21.69;51.53
20983;BME280;10650;51.528;6.748;2023-07-08T03:58:42;101399.72;;;21.75;51.70
20983;BME280;10650;51.528;6.748;2023-07-08T04:01:10;101402.22;;;21.80;51.79
20983;BME280;10650;51.528;6.748;2023-07-08T04:03:42;101398.34;;;21.86;51.52
20983;BME280;10650;51.528;6.748;2023-07-08T04:06:10;101398.25;;;21.87;50.89
20983;BME280;10650;51.528;6.748;2023-07-08T04:08:37;101403.63;;;21.89;51.09
20983;BME280;10650;51.528;6.748;2023-07-08T04:11:05;101399.09;;;21.89;51.29
20983;BME280;10650;51.528;6.748;2023-07-08T04:13:33;101407.09;;;21.92;51.41
20983;BME280;10650;51.528;6.748;2023-07-08T04:16:02;101412.25;;;21.99;51.26
20983;BME280;10650;51.528;6.748;2023-07-08T04:18:31;101403.16;;;22.00;51.49
20983;BME280;10650;51.528;6.748;2023-07-08T04:20:59;101403.16;;;22.00;51.25
20983;BME280;10650;51.528;6.748;2023-07-08T04:23:31;101408.50;;;22.01;51.46
20983;BME280;10650;51.528;6.748;2023-07-08T04:25:59;101410.41;;;21.99;51.60
20983;BME280;10650;51.528;6.748;2023-07-08T04:28:27;101406.97;;;21.95;51.54
20983;BME280;10650;51.528;6.748;2023-07-08T04:30:54;101406.75;;;22.00;51.83
20983;BME280;10650;51.528;6.748;2023-07-08T04:33:23;101409.25;;;22.05;52.15
20983;BME280;10650;51.528;6.748;2023-07-08T04:35:51;101404.78;;;22.04;51.56
20983;BME280;10650;51.528;6.748;2023-07-08T04:38:21;101411.16;;;22.03;51.46
20983;BME280;10650;51.528;6.748;2023-07-08T04:40:49;101411.00;;;22.06;51.64
20983;BME280;10650;51.528;6.748;2023-07-08T04:43:17;101411.94;;;22.44;51.28
20983;BME280;10650;51.528;6.748;2023-07-08T04:45:45;101419.00;;;22.68;50.05
20983;BME280;10650;51.528;6.748;2023-07-08T04:48:14;101431.84;;;22.83;50.48
20983;BME280;10650;51.528;6.748;2023-07-08T04:50:43;101417.38;;;23.54;49.53
20983;BME280;10650;51.528;6.748;2023-07-08T04:53:11;101415.41;;;24.25;47.58
20983;BME280;10650;51.528;6.748;2023-07-08T04:55:40;101413.75;;;24.22;46.99
20983;BME280;10650;51.528;6.748;2023-07-08T04:58:09;101419.06;;;23.92;47.82
20983;BME280;10650;51.528;6.748;2023-07-08T05:00:36;101420.03;;;23.56;47.95
20983;BME280;10650;51.528;6.748;2023-07-08T05:03:04;101418.81;;;23.26;48.80
20983;BME280;10650;51.528;6.748;2023-07-08T05:05:32;101416.03;;;23.09;49.91
20983;BME280;10650;51.528;6.748;2023-07-08T05:08:01;101408.88;;;22.89;50.24
20983;BME280;10650;51.528;6.748;2023-07-08T05:10:28;101406.84;;;22.75;51.03
20983;BME280;10650;51.528;6.748;2023-07-08T05:12:56;101410.09;;;22.64;50.77
20983;BME280;10650;51.528;6.748;2023-07-08T05:15:23;101410.53;;;22.55;50.56
20983;BME280;10650;51.528;6.748;2023-07-08T05:17:51;101416.88;;;22.55;51.38
20983;BME280;10650;51.528;6.748;2023-07-08T05:20:19;101415.84;;;22.58;51.17
20983;BME280;10650;51.528;6.748;2023-07-08T05:22:47;101403.75;;;22.63;51.52
20983;BME280;10650;51.528;6.748;2023-07-08T05:25:17;101404.44;;;22.69;51.64
20983;BME280;10650;51.528;6.748;2023-07-08T05:27:45;101398.06;;;22.87;51.55
20983;BME280;10650;51.528;6.748;2023-07-08T05:30:14;101400.56;;;23.09;50.87
20983;BME280;10650;51.528;6.748;2023-07-08T05:32:42;101409.03;;;23.22;50.06
20983;BME280;10650;51.528;6.748;2023-07-08T05:35:09;101408.56;;;23.31;50.02
20983;BME280;10650;51.528;6.748;2023-07-08T05:37:37;101406.47;;;23.37;49.87
20983;BME280;10650;51.528;6.748;2023-07-08T05:40:07;101403.09;;;23.49;49.86
20983;BME280;10650;51.528;6.748;2023-07-08T05:42:36;101406.63;;;23.51;49.94
20983;BME280;10650;51.528;6.748;2023-07-08T05:45:04;101400.78;;;23.59;50.09
20983;BME280;10650;51.528;6.748;2023-07-08T05:47:33;101399.88;;;23.58;49.69
20983;BME280;10650;51.528;6.748;2023-07-08T05:50:00;101398.91;;;23.59;50.58
20983;BME280;10650;51.528;6.748;2023-07-08T05:52:28;101402.38;;;23.63;50.82
20983;BME280;10650;51.528;6.748;2023-07-08T05:54:56;101403.16;;;23.65;50.26
20983;BME280;10650;51.528;6.748;2023-07-08T05:57:23;101405.09;;;23.63;50.52
20983;BME280;10650;51.528;6.748;2023-07-08T05:59:52;101406.94;;;23.62;50.14
20983;BME280;10650;51.528;6.748;2023-07-08T06:02:20;101408.53;;;23.66;50.67
20983;BME280;10650;51.528;6.748;2023-07-08T06:04:49;101416.41;;;23.73;50.60
20983;BME280;10650;51.528;6.748;2023-07-08T06:07:17;101415.16;;;23.78;50.26
20983;BME280;10650;51.528;6.748;2023-07-08T06:09:44;101415.72;;;23.85;50.19
20983;BME280;10650;51.528;6.748;2023-07-08T06:12:12;101410.94;;;23.90;50.04
20983;BME280;10650;51.528;6.748;2023-07-08T06:14:40;101404.38;;;23.94;50.31
20983;BME280;10650;51.528;6.748;2023-07-08T06:17:09;101412.13;;;24.02;50.56
20983;BME280;10650;51.528;6.748;2023-07-08T06:19:37;101403.75;;;24.05;49.91
20983;BME280;10650;51.528;6.748;2023-07-08T06:22:04;101404.22;;;24.13;51.07
20983;BME280;10650;51.528;6.748;2023-07-08T06:24:52;101399.22;;;24.22;50.11
20983;BME280;10650;51.528;6.748;2023-07-08T06:27:20;101402.66;;;24.25;49.09
20983;BME280;10650;51.528;6.748;2023-07-08T06:29:47;101404.22;;;24.29;50.08
20983;BME280;10650;51.528;6.748;2023-07-08T06:32:16;101403.28;;;24.30;48.98
20983;BME280;10650;51.528;6.748;2023-07-08T06:34:44;101405.84;;;24.33;49.13
20983;BME280;10650;51.528;6.748;2023-07-08T06:37:11;101403.47;;;24.43;50.15
20983;BME280;10650;51.528;6.748;2023-07-08T06:39:39;101403.00;;;24.51;49.67
20983;BME280;10650;51.528;6.748;2023-07-08T06:42:07;101404.19;;;24.63;50.41
20983;BME280;10650;51.528;6.748;2023-07-08T06:44:35;101412.63;;;24.74;49.77
20983;BME280;10650;51.528;6.748;2023-07-08T06:47:04;101410.34;;;24.82;48.73
20983;BME280;10650;51.528;6.748;2023-07-08T06:49:33;101419.06;;;24.89;48.39
20983;BME280;10650;51.528;6.748;2023-07-08T06:52:01;101409.53;;;24.96;48.71
20983;BME280;10650;51.528;6.748;2023-07-08T06:54:28;101411.72;;;25.05;49.08
20983;BME280;10650;51.528;6.748;2023-07-08T06:56:56;101408.53;;;25.13;48.67
20983;BME280;10650;51.528;6.748;2023-07-08T06:59:23;101401.84;;;25.19;48.28
20983;BME280;10650;51.528;6.748;2023-07-08T07:01:51;101412.38;;;25.25;47.96
20983;BME280;10650;51.528;6.748;2023-07-08T07:04:19;101399.94;;;25.35;48.91
20983;BME280;10650;51.528;6.748;2023-07-08T07:06:47;101400.16;;;25.47;49.12
20983;BME280;10650;51.528;6.748;2023-07-08T07:09:15;101395.38;;;25.50;48.51
20983;BME280;10650;51.528;6.748;2023-07-08T07:11:43;101397.84;;;25.55;47.91
20983;BME280;10650;51.528;6.748;2023-07-08T07:14:10;101396.41;;;25.64;47.11
20983;BME280;10650;51.528;6.748;2023-07-08T07:16:41;101388.50;;;25.73;47.10
20983;BME280;10650;51.528;6.748;2023-07-08T07:19:29;101392.22;;;25.87;48.67
20983;BME280;10650;51.528;6.748;2023-07-08T07:21:58;101399.91;;;25.95;45.89
20983;BME280;10650;51.528;6.748;2023-07-08T07:24:26;101385.97;;;25.99;46.32
20983;BME280;10650;51.528;6.748;2023-07-08T07:26:53;101378.47;;;26.03;46.23
20983;BME280;10650;51.528;6.748;2023-07-08T07:29:21;101385.50;;;26.07;46.55
20983;BME280;10650;51.528;6.748;2023-07-08T07:31:49;101380.13;;;26.05;45.18
20983;BME280;10650;51.528;6.748;2023-07-08T07:34:17;101388.63;;;26.15;46.34
20983;BME280;10650;51.528;6.748;2023-07-08T07:36:45;101381.47;;;26.27;45.93
20983;BME280;10650;51.528;6.748;2023-07-08T07:39:14;101384.50;;;26.37;45.82
20983;BME280;10650;51.528;6.748;2023-07-08T07:41:41;101385.84;;;26.44;45.09
20983;BME280;10650;51.528;6.748;2023-07-08T07:44:09;101389.06;;;26.51;44.77
20983;BME280;10650;51.528;6.748;2023-07-08T07:46:37;101397.06;;;26.54;44.58
20983;BME280;10650;51.528;6.748;2023-07-08T07:49:04;101396.25;;;26.66;44.12
20983;BME280;10650;51.528;6.748;2023-07-08T07:51:32;101399.06;;;26.79;43.57
20983;BME280;10650;51.528;6.748;2023-07-08T07:53:59;101389.16;;;26.91;43.45
20983;BME280;10650;51.528;6.748;2023-07-08T07:56:28;101396.44;;;27.05;42.69
20983;BME280;10650;51.528;6.748;2023-07-08T07:58:56;101400.50;;;27.12;41.90
20983;BME280;10650;51.528;6.748;2023-07-08T08:01:23;101408.34;;;27.18;41.20
20983;BME280;10650;51.528;6.748;2023-07-08T08:03:51;101405.91;;;27.26;41.68
20983;BME280;10650;51.528;6.748;2023-07-08T08:06:19;101403.44;;;27.36;41.75
20983;BME280;10650;51.528;6.748;2023-07-08T08:08:46;101394.59;;;27.45;41.89
20983;BME280;10650;51.528;6.748;2023-07-08T08:11:15;101398.44;;;27.56;40.83
20983;BME280;10650;51.528;6.748;2023-07-08T08:13:44;101396.16;;;27.62;41.18
20983;BME280;10650;51.528;6.748;2023-07-08T08:16:12;101403.72;;;27.72;40.65
20983;BME280;10650;51.528;6.748;2023-07-08T08:18:39;101395.59;;;27.83;41.55
20983;BME280;10650;51.528;6.748;2023-07-08T08:21:07;101398.34;;;27.96;41.33
20983;BME280;10650;51.528;6.748;2023-07-08T08:23:34;101390.34;;;28.06;40.82
20983;BME280;10650;51.528;6.748;2023-07-08T08:26:03;101399.78;;;28.14;41.09
20983;BME280;10650;51.528;6.748;2023-07-08T08:28:30;101402.63;;;28.26;41.77
20983;BME280;10650;51.528;6.748;2023-07-08T08:30:59;101402.16;;;28.32;41.20
20983;BME280;10650;51.528;6.748;2023-07-08T08:33:27;101398.44;;;28.33;40.40
20983;BME280;10650;51.528;6.748;2023-07-08T08:35:54;101394.47;;;28.37;39.93
20983;BME280;10650;51.528;6.748;2023-07-08T08:38:22;101395.09;;;28.41;39.93
20983;BME280;10650;51.528;6.748;2023-07-08T08:40:49;101396.50;;;28.46;40.08
20983;BME280;10650;51.528;6.748;2023-07-08T08:43:18;101395.97;;;28.54;40.67
20983;BME280;10650;51.528;6.748;2023-07-08T08:45:48;101392.66;;;28.62;41.01
20983;BME280;10650;51.528;6.748;2023-07-08T08:48:19;101395.81;;;28.69;39.85
20983;BME280;10650;51.528;6.748;2023-07-08T08:50:49;101394.56;;;28.73;39.54
20983;BME280;10650;51.528;6.748;2023-07-08T08:53:19;101393.88;;;28.82;40.43
20983;BME280;10650;51.528;6.748;2023-07-08T08:55:49;101398.03;;;28.88;40.31
20983;BME280;10650;51.528;6.748;2023-07-08T08:58:23;101406.47;;;28.97;39.92
20983;BME280;10650;51.528;6.748;2023-07-08T09:00:53;101401.91;;;29.09;39.91
20983;BME280;10650;51.528;6.748;2023-07-08T09:03:28;101402.94;;;29.20;40.04
20983;BME280;10650;51.528;6.748;2023-07-08T09:05:57;101407.78;;;29.29;39.67
20983;BME280;10650;51.528;6.748;2023-07-08T09:08:30;101398.28;;;29.33;39.42
20983;BME280;10650;51.528;6.748;2023-07-08T09:11:00;101406.41;;;29.46;40.22
20983;BME280;10650;51.528;6.748;2023-07-08T09:13:29;101398.19;;;29.57;40.35
20983;BME280;10650;51.528;6.748;2023-07-08T09:15:59;101401.22;;;29.65;39.09
20983;BME280;10650;51.528;6.748;2023-07-08T09:18:33;101399.72;;;29.73;39.20
20983;BME280;10650;51.528;6.748;2023-07-08T09:21:06;101406.50;;;29.80;39.21
20983;BME280;10650;51.528;6.748;2023-07-08T09:23:41;101399.16;;;29.92;38.71
20983;BME280;10650;51.528;6.748;2023-07-08T09:26:10;101397.44;;;30.02;37.00
20983;BME280;10650;51.528;6.748;2023-07-08T09:28:41;101393.66;;;30.14;36.66
20983;BME280;10650;51.528;6.748;2023-07-08T09:31:16;101388.13;;;30.26;34.79
20983;BME280;10650;51.528;6.748;2023-07-08T09:33:49;101402.16;;;30.34;33.15
20983;BME280;10650;51.528;6.748;2023-07-08T09:36:18;101397.16;;;30.39;33.78
20983;BME280;10650;51.528;6.748;2023-07-08T09:38:47;101405.06;;;30.44;32.79
20983;BME280;10650;51.528;6.748;2023-07-08T09:41:17;101410.31;;;30.47;32.98
20983;BME280;10650;51.528;6.748;2023-07-08T09:44:02;101408.81;;;30.43;32.85
20983;BME280;10650;51.528;6.748;2023-07-08T09:46:34;101407.41;;;30.37;33.56
20983;BME280;10650;51.528;6.748;2023-07-08T09:49:12;101393.91;;;30.45;32.81
20983;BME280;10650;51.528;6.748;2023-07-08T09:51:43;101403.88;;;30.69;31.72
20983;BME280;10650;51.528;6.748;2023-07-08T09:54:10;101396.22;;;30.84;31.86
20983;BME280;10650;51.528;6.748;2023-07-08T09:56:40;101408.34;;;30.93;31.70
20983;BME280;10650;51.528;6.748;2023-07-08T09:59:10;101413.44;;;30.97;31.84
20983;BME280;10650;51.528;6.748;2023-07-08T10:01:38;101406.56;;;31.03;31.89
20983;BME280;10650;51.528;6.748;2023-07-08T10:04:07;101405.03;;;31.10;31.42
20983;BME280;10650;51.528;6.748;2023-07-08T10:06:36;101415.53;;;31.16;31.58
20983;BME280;10650;51.528;6.748;2023-07-08T10:09:09;101411.50;;;31.20;31.54
20983;BME280;10650;51.528;6.748;2023-07-08T10:11:41;101412.13;;;31.24;31.50
20983;BME280;10650;51.528;6.748;2023-07-08T10:14:12;101405.47;;;31.27;30.49
20983;BME280;10650;51.528;6.748;2023-07-08T10:16:46;101414.22;;;31.32;30.82
20983;BME280;10650;51.528;6.748;2023-07-08T10:19:14;101403.38;;;31.40;31.11
20983;BME280;10650;51.528;6.748;2023-07-08T10:21:46;101397.31;;;31.46;30.76
20983;BME280;10650;51.528;6.748;2023-07-08T10:24:19;101398.53;;;31.53;30.64
20983;BME280;10650;51.528;6.748;2023-07-08T10:26:53;101398.38;;;31.55;29.71
20983;BME280;10650;51.528;6.748;2023-07-08T10:29:25;101399.91;;;31.59;30.36
20983;BME280;10650;51.528;6.748;2023-07-08T10:31:58;101396.63;;;31.65;31.00
20983;BME280;10650;51.528;6.748;2023-07-08T10:34:34;101394.03;;;31.73;30.36
20983;BME280;10650;51.528;6.748;2023-07-08T10:37:07;101391.19;;;31.85;30.49
20983;BME280;10650;51.528;6.748;2023-07-08T10:39:44;101386.00;;;31.91;30.32
20983;BME280;10650;51.528;6.748;2023-07-08T10:42:20;101380.19;;;31.95;29.15
20983;BME280;10650;51.528;6.748;2023-07-08T10:44:58;101378.91;;;31.99;29.45
20983;BME280;10650;51.528;6.748;2023-07-08T10:47:35;101386.50;;;32.06;29.53
20983;BME280;10650;51.528;6.748;2023-07-08T10:50:11;101380.56;;;32.11;29.33
20983;BME280;10650;51.528;6.748;2023-07-08T10:52:48;101375.66;;;32.15;30.09
20983;BME280;10650;51.528;6.748;2023-07-08T10:55:20;101374.94;;;32.22;30.05
20983;BME280;10650;51.528;6.748;2023-07-08T11:00:42;101368.16;;;32.36;30.03
20983;BME280;10650;51.528;6.748;2023-07-08T11:03:38;101364.81;;;32.42;29.54
20983;BME280;10650;51.528;6.748;2023-07-08T11:06:10;101353.38;;;32.47;29.45
20983;BME280;10650;51.528;6.748;2023-07-08T11:08:42;101363.69;;;32.55;29.88
20983;BME280;10650;51.528;6.748;2023-07-08T11:11:25;101355.72;;;32.62;29.61
20983;BME280;10650;51.528;6.748;2023-07-08T11:13:56;101352.09;;;32.71;29.52
20983;BME280;10650;51.528;6.748;2023-07-08T11:16:26;101356.03;;;32.78;29.61
20983;BME280;10650;51.528;6.748;2023-07-08T11:19:02;101347.03;;;32.86;30.08
20983;BME280;10650;51.528;6.748;2023-07-08T11:21:32;101346.44;;;32.92;29.65
20983;BME280;10650;51.528;6.748;2023-07-08T11:24:04;101347.75;;;32.98;29.33
20983;BME280;10650;51.528;6.748;2023-07-08T11:26:36;101336.84;;;33.06;28.87
20983;BME280;10650;51.528;6.748;2023-07-08T11:29:09;101342.06;;;33.09;28.32
20983;BME280;10650;51.528;6.748;2023-07-08T11:31:41;101348.16;;;33.12;28.38
20983;BME280;10650;51.528;6.748;2023-07-08T11:34:10;101341.19;;;33.18;29.15
20983;BME280;10650;51.528;6.748;2023-07-08T11:36:38;101342.66;;;33.22;28.50
20983;BME280;10650;51.528;6.748;2023-07-08T11:41:50;101336.25;;;33.32;28.14
20983;BME280;10650;51.528;6.748;2023-07-08T11:44:21;101336.38;;;33.40;28.25
20983;BME280;10650;51.528;6.748;2023-07-08T11:46:53;101326.19;;;33.40;27.97
20983;BME280;10650;51.528;6.748;2023-07-08T11:49:21;101340.00;;;33.50;28.31
20983;BME280;10650;51.528;6.748;2023-07-08T11:51:50;101334.16;;;33.53;26.57
20983;BME280;10650;51.528;6.748;2023-07-08T11:54:20;101329.91;;;33.59;26.46
20983;BME280;10650;51.528;6.748;2023-07-08T11:56:59;101329.47;;;33.63;26.69
20983;BME280;10650;51.528;6.748;2023-07-08T11:59:29;101328.75;;;33.61;25.89
20983;BME280;10650;51.528;6.748;2023-07-08T12:02:01;101333.41;;;33.61;27.29
20983;BME280;10650;51.528;6.748;2023-07-08T12:04:29;101322.59;;;33.68;27.14
20983;BME280;10650;51.528;6.748;2023-07-08T12:09:45;101330.44;;;33.72;26.79
20983;BME280;10650;51.528;6.748;2023-07-08T12:12:17;101325.63;;;33.74;26.28
20983;BME280;10650;51.528;6.748;2023-07-08T12:14:47;101331.63;;;33.79;26.50
20983;BME280;10650;51.528;6.748;2023-07-08T12:17:14;101326.81;;;33.82;26.27
20983;BME280;10650;51.528;6.748;2023-07-08T12:19:43;101332.75;;;33.87;26.76
20983;BME280;10650;51.528;6.748;2023-07-08T12:22:11;101319.34;;;33.92;25.37
20983;BME280;10650;51.528;6.748;2023-07-08T12:24:40;101312.63;;;33.94;25.16
20983;BME280;10650;51.528;6.748;2023-07-08T12:27:09;101308.94;;;33.94;26.55
20983;BME280;10650;51.528;6.748;2023-07-08T12:29:38;101315.06;;;33.97;26.54
20983;BME280;10650;51.528;6.748;2023-07-08T12:32:08;101312.00;;;34.01;25.98
20983;BME280;10650;51.528;6.748;2023-07-08T12:34:36;101308.75;;;34.05;26.27
20983;BME280;10650;51.528;6.748;2023-07-08T12:37:03;101319.38;;;34.10;26.30
20983;BME280;10650;51.528;6.748;2023-07-08T12:39:32;101306.25;;;34.12;26.28
20983;BME280;10650;51.528;6.748;2023-07-08T12:42:00;101306.94;;;34.14;26.12
20983;BME280;10650;51.528;6.748;2023-07-08T12:44:31;101302.69;;;34.20;25.98
20983;BME280;10650;51.528;6.748;2023-07-08T12:47:04;101304.72;;;34.27;25.82
20983;BME280;10650;51.528;6.748;2023-07-08T12:49:31;101296.81;;;34.33;26.49
20983;BME280;10650;51.528;6.748;2023-07-08T12:52:00;101293.22;;;34.40;25.72
20983;BME280;10650;51.528;6.748;2023-07-08T12:54:28;101296.91;;;34.41;25.85
20983;BME280;10650;51.528;6.748;2023-07-08T12:56:56;101300.22;;;34.44;25.62
20983;BME280;10650;51.528;6.748;2023-07-08T12:59:23;101298.88;;;34.48;25.92
20983;BME280;10650;51.528;6.748;2023-07-08T13:01:52;101298.09;;;34.56;25.93
20983;BME280;10650;51.528;6.748;2023-07-08T13:04:21;101300.41;;;34.61;25.46
20983;BME280;10650;51.528;6.748;2023-07-08T13:06:49;101296.75;;;34.60;25.39
20983;BME280;10650;51.528;6.748;2023-07-08T13:09:21;101293.81;;;34.62;25.82